createdAt,value
2017-12-26T15:42:54.552Z,6.71
2017-12-26T15:44:55.916Z,6.72
2017-12-26T15:46:57.430Z,6.69
2017-12-26T15:48:58.826Z,6.77
2017-12-26T15:51:00.270Z,6.81
2017-12-26T15:53:01.686Z,6.76
2017-12-26T15:55:03.114Z,6.79
2017-12-26T15:57:04.531Z,6.80
2017-12-26T15:59:05.944Z,6.90
2017-12-26T16:01:07.358Z,6.89
2017-12-26T16:03:08.758Z,6.97
2017-12-26T16:05:10.360Z,6.87
2017-12-26T16:07:11.791Z,6.76
2017-12-26T16:09:13.198Z,6.77
2017-12-26T16:11:14.737Z,6.72
2017-12-26T16:13:16.200Z,6.71
2017-12-26T16:15:17.582Z,6.61
2017-12-26T16:17:19.496Z,6.62
2017-12-26T16:19:21.274Z,6.56
2017-12-26T16:21:23.175Z,6.48
2017-12-26T16:23:24.839Z,6.56
2017-12-26T16:25:26.308Z,6.59
2017-12-26T16:27:27.921Z,6.56
2017-12-26T16:29:29.542Z,6.53
2017-12-26T16:31:31.229Z,6.62
2017-12-26T16:33:32.899Z,6.51
2017-12-26T16:35:34.721Z,6.46
2017-12-26T16:37:36.455Z,6.48
2017-12-26T16:39:38.125Z,6.48
2017-12-26T16:41:39.576Z,6.44
2017-12-26T16:43:41.038Z,6.36
2017-12-26T16:45:42.761Z,6.36
2017-12-26T16:47:44.528Z,6.32
2017-12-26T16:49:45.962Z,6.40
2017-12-26T16:51:47.398Z,6.38
2017-12-26T16:53:49.788Z,6.41
2017-12-26T16:55:51.293Z,6.44
2017-12-26T16:57:52.717Z,6.47
2017-12-26T16:59:54.178Z,6.50
2017-12-26T17:01:55.800Z,6.44
2017-12-26T17:03:57.441Z,6.51
2017-12-26T17:05:59.240Z,6.47
2017-12-26T17:08:00.684Z,6.59
2017-12-26T17:10:02.106Z,6.53
2017-12-26T17:12:03.511Z,6.72
2017-12-26T17:14:04.966Z,6.62
2017-12-26T17:16:06.364Z,6.58
2017-12-26T17:18:07.836Z,6.58
2017-12-26T17:20:09.351Z,6.62
2017-12-26T17:22:11.135Z,6.59
2017-12-26T17:24:12.700Z,6.56
2017-12-26T17:26:14.568Z,6.56
2017-12-26T17:28:16.197Z,6.66
2017-12-26T17:30:17.878Z,6.59
2017-12-26T17:32:19.286Z,6.59
2017-12-26T17:34:20.695Z,6.62
2017-12-26T17:36:22.115Z,6.62
2017-12-26T17:38:23.623Z,6.59
2017-12-26T17:40:25.259Z,6.61
2017-12-26T17:42:27.028Z,6.59
2017-12-26T17:44:28.661Z,6.48
2017-12-26T17:46:30.289Z,6.43
2017-12-26T17:48:31.921Z,6.48
2017-12-26T17:50:33.695Z,6.40
2017-12-26T17:52:35.405Z,6.32
2017-12-26T17:54:37.115Z,6.36
2017-12-26T17:56:38.572Z,6.35
2017-12-26T17:58:40.200Z,6.33
2017-12-26T18:00:41.901Z,6.28
2017-12-26T18:02:43.650Z,6.33
2017-12-26T18:04:45.455Z,6.19
2017-12-26T18:06:47.241Z,6.19
2017-12-26T18:08:48.705Z,6.10
2017-12-26T18:10:50.149Z,6.16
2017-12-26T18:12:51.914Z,6.14
2017-12-26T18:14:53.597Z,6.13
2017-12-26T18:16:55.265Z,6.07
2017-12-26T18:18:56.724Z,6.03
2017-12-26T18:20:58.456Z,5.93
2017-12-26T18:22:59.901Z,6.07
2017-12-26T18:25:01.389Z,6.11
2017-12-26T18:27:03.065Z,5.95
2017-12-26T18:29:04.900Z,6.07
2017-12-26T18:31:06.569Z,6.14
2017-12-26T18:33:08.244Z,6.18
2017-12-26T18:35:09.889Z,6.25
2017-12-26T18:37:11.374Z,6.25
2017-12-26T18:39:12.810Z,6.32
2017-12-26T18:41:14.458Z,6.33
2017-12-26T18:43:16.236Z,6.29
2017-12-26T18:45:17.959Z,6.41
2017-12-26T18:47:19.419Z,6.44
2017-12-26T18:49:21.154Z,6.51
2017-12-26T18:51:22.863Z,6.53
2017-12-26T18:53:24.331Z,6.44
2017-12-26T18:55:25.960Z,6.43
2017-12-26T18:57:27.827Z,6.47
2017-12-26T18:59:29.525Z,6.44
2017-12-26T19:01:31.227Z,6.40
2017-12-26T19:03:32.662Z,6.30
2017-12-26T19:05:34.092Z,6.33
2017-12-26T19:07:35.595Z,6.35
2017-12-26T19:09:37.027Z,6.32
2017-12-26T19:11:38.448Z,6.30
2017-12-26T19:13:40.155Z,6.29
2017-12-26T19:15:42.064Z,6.30
2017-12-26T19:17:43.540Z,6.26
2017-12-26T19:19:44.969Z,6.19
2017-12-26T19:21:46.660Z,6.18
2017-12-26T19:23:48.499Z,6.18
2017-12-26T19:25:50.265Z,6.25
2017-12-26T19:27:52.244Z,6.19
2017-12-26T19:29:53.682Z,6.13
2017-12-26T19:31:55.118Z,6.10
2017-12-26T19:33:56.580Z,6.09
2017-12-26T19:35:58.029Z,6.19
2017-12-26T19:37:59.469Z,6.10
2017-12-26T19:40:00.903Z,6.10
2017-12-26T19:42:02.358Z,5.95
2017-12-26T19:44:04.020Z,6.00
2017-12-26T19:46:05.505Z,6.06
2017-12-26T19:48:06.980Z,6.11
2017-12-26T19:50:08.489Z,6.06
2017-12-26T19:52:09.902Z,6.00
2017-12-26T19:54:11.331Z,5.91
2017-12-26T19:56:12.815Z,5.95
2017-12-26T19:58:14.237Z,5.93
2017-12-26T20:00:15.675Z,5.88
2017-12-26T20:02:17.144Z,5.91
2017-12-26T20:04:18.570Z,6.01
2017-12-26T20:06:20.101Z,5.92
2017-12-26T20:08:21.658Z,5.96
2017-12-26T20:10:23.108Z,5.95
2017-12-26T20:12:24.732Z,5.95
2017-12-26T20:14:26.382Z,6.07
2017-12-26T20:16:28.055Z,6.09
2017-12-26T20:18:29.631Z,6.16
2017-12-26T20:20:31.186Z,6.13
2017-12-26T20:22:32.852Z,6.09
2017-12-26T20:24:34.529Z,6.11
2017-12-26T20:26:36.171Z,6.10
2017-12-26T20:28:37.850Z,6.09
2017-12-26T20:30:39.444Z,6.07
2017-12-26T20:32:41.111Z,6.13
2017-12-26T20:34:42.871Z,6.07
2017-12-26T20:36:44.479Z,6.04
2017-12-26T20:38:46.147Z,6.04
2017-12-26T20:40:47.796Z,6.01
2017-12-26T20:42:50.077Z,6.01
2017-12-26T20:44:51.784Z,6.03
2017-12-26T20:46:53.253Z,6.13
2017-12-26T20:48:54.945Z,6.11
2017-12-26T20:50:56.598Z,6.07
2017-12-26T20:52:58.414Z,6.04
2017-12-26T20:55:00.175Z,6.04
2017-12-26T20:57:02.024Z,5.98
2017-12-26T20:59:03.589Z,5.88
2017-12-26T21:01:05.239Z,6.00
2017-12-26T21:03:07.051Z,5.86
2017-12-26T21:05:08.905Z,5.74
2017-12-26T21:07:10.720Z,5.78
2017-12-26T21:09:12.412Z,5.81
2017-12-26T21:11:14.251Z,5.75
2017-12-26T21:13:15.735Z,5.74
2017-12-26T21:15:17.552Z,5.86
2017-12-26T21:17:19.854Z,5.77
2017-12-26T21:19:21.553Z,5.74
2017-12-26T21:21:23.214Z,5.71
2017-12-26T21:23:25.046Z,5.75
2017-12-26T21:25:26.678Z,5.88
2017-12-26T21:27:28.296Z,5.86
2017-12-26T21:29:29.951Z,5.89
2017-12-26T21:31:31.593Z,5.86
2017-12-26T21:33:33.028Z,5.81
2017-12-26T21:35:34.523Z,5.75
2017-12-26T21:37:36.179Z,5.82
2017-12-26T21:39:37.970Z,5.89
2017-12-26T21:41:39.435Z,5.75
2017-12-26T21:43:41.107Z,5.68
2017-12-26T21:45:42.809Z,5.66
2017-12-26T21:47:44.545Z,5.68
2017-12-26T21:49:45.998Z,5.68
2017-12-26T21:51:47.649Z,5.78
2017-12-26T21:53:49.893Z,5.66
2017-12-26T21:55:51.373Z,5.71
2017-12-26T21:57:53.154Z,5.70
2017-12-26T21:59:54.808Z,5.63
2017-12-26T22:01:56.598Z,5.68
2017-12-26T22:03:58.067Z,5.75
2017-12-26T22:05:59.492Z,5.75
2017-12-26T22:08:00.954Z,5.77
2017-12-26T22:10:02.561Z,5.78
2017-12-26T22:12:04.339Z,5.91
2017-12-26T22:14:06.017Z,5.93
2017-12-26T22:16:07.868Z,5.91
2017-12-26T22:18:09.538Z,5.82
2017-12-26T22:20:11.352Z,5.89
2017-12-26T22:22:13.154Z,6.01
2017-12-26T22:24:14.969Z,5.83
2017-12-26T22:26:16.422Z,5.96
2017-12-26T22:28:17.894Z,5.95
2017-12-26T22:30:19.564Z,6.01
2017-12-26T22:32:21.051Z,5.85
2017-12-26T22:34:22.591Z,5.86
2017-12-26T22:36:24.025Z,5.82
2017-12-26T22:38:25.465Z,5.70
2017-12-26T22:40:26.986Z,5.55
2017-12-26T22:42:28.616Z,5.64
2017-12-26T22:44:30.250Z,5.67
2017-12-26T22:46:31.716Z,5.71
2017-12-26T22:48:33.341Z,5.77
2017-12-26T22:50:34.995Z,5.68
2017-12-26T22:52:36.401Z,5.53
2017-12-26T22:54:38.174Z,5.70
2017-12-26T22:56:39.748Z,5.64
2017-12-26T22:58:41.385Z,5.56
2017-12-26T23:00:43.069Z,5.70
2017-12-26T23:02:44.736Z,5.66
2017-12-26T23:04:46.141Z,5.70
2017-12-26T23:06:47.555Z,5.67
2017-12-26T23:08:48.990Z,5.71
2017-12-26T23:10:50.451Z,5.73
2017-12-26T23:12:52.054Z,5.70
2017-12-26T23:14:53.740Z,5.67
2017-12-26T23:16:55.548Z,5.55
2017-12-26T23:18:57.193Z,5.64
2017-12-26T23:20:58.605Z,5.63
2017-12-26T23:23:00.021Z,5.70
2017-12-26T23:25:01.426Z,5.68
2017-12-26T23:27:02.839Z,5.59
2017-12-26T23:29:04.277Z,5.66
2017-12-26T23:31:05.665Z,5.53
2017-12-26T23:33:07.067Z,5.67
2017-12-26T23:35:08.485Z,5.56
2017-12-26T23:37:09.972Z,5.59
2017-12-26T23:39:11.516Z,5.68
2017-12-26T23:41:12.986Z,5.64
2017-12-26T23:43:14.783Z,5.55
2017-12-26T23:45:16.230Z,5.67
2017-12-26T23:47:17.689Z,5.64
2017-12-26T23:49:19.163Z,5.66
2017-12-26T23:51:20.932Z,5.66
2017-12-26T23:53:22.783Z,5.66
2017-12-26T23:55:24.439Z,5.70
2017-12-26T23:57:25.945Z,5.64
2017-12-26T23:59:27.417Z,5.75
